Time;durP1;ratioP1;P1;durP2;ratioP2;P2;SDS_P1;SDS_P2;PMS_P1;PMS_P2;Temp;Humidity;BMP_temperature;BMP_pressure;BME280_temperature;BME280_humidity;BME280_pressure;Samples;Min_cycle;Max_cycle;Signal;HPM_P1;HPM_P2
2021/04/12 00:02:29;;;;;;;3.00;1.30;;;;;;;5.57;62.17;101727.66;6224538;28;20228;-55
2021/04/12 00:05:57;;;;;;;1.63;0.90;;;;;;;5.59;61.63;101733.72;6229059;28;20232;-55
2021/04/12 00:09:23;;;;;;;4.30;1.10;;;;;;;5.77;60.93;101738.50;6231716;28;20228;-53
2021/04/12 00:12:48;;;;;;;1.47;0.93;;;;;;;5.17;62.82;101753.25;6222437;28;20355;-54
2021/04/12 00:16:14;;;;;;;2.40;1.33;;;;;;;5.45;62.01;101748.88;6225337;28;20221;-50
2021/04/12 00:19:42;;;;;;;7.03;2.07;;;;;;;5.37;61.76;101752.94;6223575;28;20229;-55
2021/04/12 00:23:07;;;;;;;2.40;1.23;;;;;;;5.28;61.69;101757.03;6231266;28;20224;-55
2021/04/12 00:26:34;;;;;;;1.93;0.90;;;;;;;5.06;62.78;101758.13;6236407;28;20228;-54
2021/04/12 00:29:59;;;;;;;2.17;1.30;;;;;;;5.45;61.56;101759.22;6221552;28;20236;-52
2021/04/12 00:33:25;;;;;;;2.43;1.27;;;;;;;5.51;61.44;101756.78;6222092;28;20232;-51
2021/04/12 00:36:53;;;;;;;4.90;1.30;;;;;;;5.19;62.63;101761.91;6215677;28;20259;-53
2021/04/12 00:40:23;;;;;;;3.77;1.97;;;;;;;5.31;62.19;101766.56;6219210;28;20223;-55
2021/04/12 00:43:58;;;;;;;1.27;1.03;;;;;;;5.33;62.39;101768.38;6216089;28;20591;-51
2021/04/12 00:47:36;;;;;;;4.97;1.53;;;;;;;4.91;63.81;101774.03;6216406;28;20256;-52
2021/04/12 00:51:16;;;;;;;2.83;1.17;;;;;;;5.22;62.54;101767.19;6212207;28;20224;-51
2021/04/12 00:54:52;;;;;;;2.20;1.27;;;;;;;4.88;63.44;101766.19;6226079;28;20327;-52
2021/04/12 00:58:21;;;;;;;2.57;1.43;;;;;;;4.56;65.77;101774.72;6227730;28;20653;-50
2021/04/12 01:01:45;;;;;;;2.10;1.20;;;;;;;4.81;64.70;101771.13;6217063;28;20661;-50
2021/04/12 01:05:26;;;;;;;1.77;1.57;;;;;;;5.01;63.72;101775.19;6229101;28;20359;-51
2021/04/12 01:09:18;;;;;;;2.43;1.33;;;;;;;5.25;63.11;101771.56;6216832;28;20246;-51
2021/04/12 01:13:14;;;;;;;5.73;2.30;;;;;;;4.87;64.41;101779.09;6217268;28;20228;-52
2021/04/12 01:17:17;;;;;;;1.90;1.10;;;;;;;4.84;63.87;101778.97;6212459;28;21420;-49
2021/04/12 01:21:15;;;;;;;4.87;1.33;;;;;;;5.01;63.84;101782.94;6209156;28;20225;-54
2021/04/12 01:25:06;;;;;;;2.87;1.23;;;;;;;4.92;63.54;101788.72;6217552;28;20632;-50
2021/04/12 01:29:04;;;;;;;2.27;1.43;;;;;;;5.17;63.27;101781.66;6204386;28;20504;-53
2021/04/12 01:32:40;;;;;;;4.87;2.13;;;;;;;5.02;64.03;101800.19;6216838;28;20248;-52
2021/04/12 01:36:37;;;;;;;3.80;1.60;;;;;;;4.97;63.45;101806.06;6204638;28;20752;-53
2021/04/12 01:40:16;;;;;;;3.60;1.43;;;;;;;4.98;63.83;101813.81;6216318;28;22108;-55
2021/04/12 01:43:54;;;;;;;3.53;1.80;;;;;;;4.72;64.85;101823.38;6215063;28;20232;-49
2021/04/12 01:47:33;;;;;;;3.37;1.57;;;;;;;4.09;67.23;101832.53;6211967;28;20290;-52
2021/04/12 01:51:23;;;;;;;2.97;1.40;;;;;;;4.41;66.48;101819.81;6213012;28;20311;-53
2021/04/12 01:55:06;;;;;;;1.70;1.50;;;;;;;4.48;66.81;101838.97;6215834;28;20228;-53
2021/04/12 01:58:43;;;;;;;4.77;1.83;;;;;;;4.66;65.61;101846.41;6203266;28;20237;-51
2021/04/12 02:02:26;;;;;;;3.13;1.73;;;;;;;4.30;66.60;101846.94;6217688;28;20237;-53
2021/04/12 02:06:05;;;;;;;4.87;1.53;;;;;;;4.37;65.79;101853.19;6216192;28;20225;-55
2021/04/12 02:10:07;;;;;;;5.67;2.47;;;;;;;4.25;66.51;101854.53;6215686;28;20228;-52
2021/04/12 02:13:42;;;;;;;4.63;1.13;;;;;;;4.30;66.24;101867.56;6173326;28;20315;-53
2021/04/12 02:17:12;;;;;;;3.97;1.80;;;;;;;4.35;65.68;101855.72;6222912;28;20220;-54
2021/04/12 02:20:45;;;;;;;4.37;2.00;;;;;;;4.10;66.11;101862.63;6224720;28;20314;-55
2021/04/12 02:24:15;;;;;;;3.80;1.07;;;;;;;4.12;66.48;101863.56;6225129;28;20236;-50
2021/04/12 02:27:48;;;;;;;2.87;1.40;;;;;;;4.10;66.63;101865.22;6228298;28;20240;-55
2021/04/12 02:31:22;;;;;;;4.00;1.53;;;;;;;3.83;67.13;101862.56;6227713;28;20617;-50
2021/04/12 02:34:50;;;;;;;5.40;1.53;;;;;;;3.84;67.10;101871.16;6222270;28;20236;-52
2021/04/12 02:38:19;;;;;;;3.33;1.57;;;;;;;4.12;66.81;101871.28;6224512;28;20232;-53
2021/04/12 02:41:56;;;;;;;5.67;1.90;;;;;;;3.69;67.67;101872.38;6229753;28;20248;-52
2021/04/12 02:45:30;;;;;;;5.10;1.73;;;;;;;4.33;66.57;101870.28;6228413;28;20266;-54
2021/04/12 02:49:01;;;;;;;6.13;1.87;;;;;;;3.65;68.87;101874.78;6228390;28;20307;-52
2021/04/12 02:52:30;;;;;;;2.97;1.57;;;;;;;3.75;68.59;101871.72;6222681;28;20344;-53
2021/04/12 02:56:11;;;;;;;3.27;1.50;;;;;;;3.63;68.68;101881.59;6233451;28;20221;-53
2021/04/12 02:59:59;;;;;;;5.70;2.43;;;;;;;3.51;68.46;101876.88;6217181;28;20232;-54
2021/04/12 03:03:48;;;;;;;3.70;1.80;;;;;;;3.45;69.35;101884.34;6221757;28;20225;-53
2021/04/12 03:07:42;;;;;;;3.40;1.70;;;;;;;3.61;68.33;101893.53;6220600;28;20241;-53
2021/04/12 03:11:29;;;;;;;10.33;1.90;;;;;;;3.54;68.17;101897.56;6214300;28;20225;-52
2021/04/12 03:15:38;;;;;;;4.70;1.40;;;;;;;3.65;68.21;101885.09;6226574;28;20232;-52
2021/04/12 03:19:26;;;;;;;2.83;1.67;;;;;;;3.86;66.74;101885.88;6123774;28;20239;-53
2021/04/12 03:23:10;;;;;;;3.07;2.20;;;;;;;3.68;67.70;101896.41;6162109;28;20232;-51
2021/04/12 03:26:53;;;;;;;4.53;2.17;;;;;;;3.67;67.71;101906.63;6205959;28;20551;-51
2021/04/12 03:30:39;;;;;;;4.87;1.90;;;;;;;3.34;68.52;101910.59;6223804;28;20228;-51
2021/04/12 03:34:12;;;;;;;5.00;2.40;;;;;;;3.50;68.71;101911.16;6222832;28;20819;-52
2021/04/12 03:38:03;;;;;;;5.63;2.23;;;;;;;3.34;68.97;101922.59;6208345;28;20236;-54
2021/04/12 03:41:51;;;;;;;5.27;2.30;;;;;;;3.54;68.10;101925.91;6224160;28;20245;-54
2021/04/12 03:45:22;;;;;;;6.97;1.87;;;;;;;3.22;68.45;101928.16;6224467;28;20815;-53
2021/04/12 03:48:56;;;;;;;6.37;1.97;;;;;;;3.19;68.98;101935.72;6218233;28;20311;-52
2021/04/12 03:52:52;;;;;;;3.80;1.70;;;;;;;3.05;69.64;101940.34;6225523;28;22102;-53
2021/04/12 03:56:31;;;;;;;4.37;1.90;;;;;;;3.47;68.08;101941.94;6223508;28;20227;-53
2021/04/12 04:00:10;;;;;;;4.37;1.90;;;;;;;3.18;68.24;101943.38;6229617;28;20232;-50
2021/04/12 04:03:53;;;;;;;6.73;2.33;;;;;;;3.52;68.13;101940.44;6232436;28;20228;-48
2021/04/12 04:07:41;;;;;;;6.43;3.17;;;;;;;3.29;68.64;101937.84;6230382;28;20228;-55
2021/04/12 04:11:31;;;;;;;6.57;2.80;;;;;;;3.26;68.54;101942.88;6228619;28;20513;-51
2021/04/12 04:15:18;;;;;;;4.27;2.87;;;;;;;3.41;68.38;101936.56;6225949;28;20240;-52
2021/04/12 04:18:44;;;;;;;7.13;2.93;;;;;;;3.16;69.43;101935.63;6228425;28;20220;-51
2021/04/12 04:22:30;;;;;;;5.97;2.27;;;;;;;3.18;69.09;101943.38;6229246;28;20232;-51
2021/04/12 04:26:35;;;;;;;3.43;2.40;;;;;;;3.07;69.34;101945.56;6223725;28;20233;-54
2021/04/12 04:30:10;;;;;;;5.37;3.13;;;;;;;2.99;69.77;101946.97;6220927;28;20327;-51
2021/04/12 04:33:49;;;;;;;5.83;2.87;;;;;;;3.01;69.75;101958.19;6230040;28;20224;-54
2021/04/12 04:37:34;;;;;;;6.37;2.90;;;;;;;3.26;68.65;101950.63;6213511;28;20592;-55
2021/04/12 04:41:11;;;;;;;7.63;3.20;;;;;;;3.34;68.31;101953.47;6228488;28;20229;-50
2021/04/12 04:44:50;;;;;;;5.93;3.63;;;;;;;3.80;67.16;101949.16;6231206;28;20228;-54
2021/04/12 04:48:39;;;;;;;6.30;3.30;;;;;;;3.58;67.41;101960.38;6216156;28;20237;-53
2021/04/12 04:52:11;;;;;;;3.77;3.10;;;;;;;3.85;66.18;101953.69;6227762;28;20228;-49
2021/04/12 04:55:46;;;;;;;4.67;3.63;;;;;;;3.83;66.30;101962.19;6224478;28;20224;-48
2021/04/12 04:59:37;;;;;;;6.77;4.53;;;;;;;3.89;66.68;101972.72;6229117;28;20224;-54
2021/04/12 05:03:22;;;;;;;7.03;3.03;;;;;;;3.63;67.47;101979.47;6232294;28;20228;-54
2021/04/12 05:07:14;;;;;;;4.90;2.97;;;;;;;3.98;65.66;101977.34;6230568;28;20233;-51
2021/04/12 05:10:57;;;;;;;5.90;3.23;;;;;;;3.58;67.32;101975.84;6223962;28;20224;-54
2021/04/12 05:14:44;;;;;;;5.63;2.83;;;;;;;4.17;65.42;101984.00;6222681;28;20229;-52
2021/04/12 05:18:21;;;;;;;4.20;3.13;;;;;;;4.23;65.04;101979.09;6218292;28;20232;-54
2021/04/12 05:22:08;;;;;;;7.00;3.73;;;;;;;4.20;66.12;101992.75;6221893;28;20362;-55
2021/04/12 05:25:56;;;;;;;7.10;4.47;;;;;;;4.26;65.98;101999.81;6208715;28;20241;-55
2021/04/12 05:30:04;;;;;;;6.63;2.90;;;;;;;4.50;65.04;101998.13;6224273;28;20263;-51
2021/04/12 05:34:02;;;;;;;5.57;3.37;;;;;;;4.30;65.32;102007.75;6224314;28;20232;-53
2021/04/12 05:37:40;;;;;;;3.80;3.30;;;;;;;3.99;66.34;102018.63;6222956;28;20239;-53
2021/04/12 05:41:13;;;;;;;6.33;3.07;;;;;;;4.15;65.86;102022.66;6214596;28;20224;-52
2021/04/12 05:44:53;;;;;;;5.33;2.67;;;;;;;4.16;65.84;102028.69;6226773;28;20399;-56
2021/04/12 05:48:33;;;;;;;7.90;4.23;;;;;;;4.64;64.58;102042.44;6225824;28;20232;-56
2021/04/12 05:52:12;;;;;;;6.03;2.80;;;;;;;3.87;66.36;102038.78;6225961;28;20232;-54
2021/04/12 05:56:01;;;;;;;5.17;2.80;;;;;;;4.14;66.26;102050.13;6222012;28;20225;-53
2021/04/12 05:59:37;;;;;;;8.53;4.10;;;;;;;4.78;64.02;102040.34;6225940;28;20225;-50
2021/04/12 06:03:09;;;;;;;7.13;2.80;;;;;;;4.55;64.30;102052.44;6222513;28;20628;-53
2021/04/12 06:06:56;;;;;;;12.97;10.23;;;;;;;4.65;65.55;102051.06;6224716;28;20232;-53
2021/04/12 06:10:54;;;;;;;6.90;3.57;;;;;;;4.61;64.60;102057.81;6199021;28;20240;-54
2021/04/12 06:14:29;;;;;;;6.17;3.33;;;;;;;4.46;65.45;102060.75;6222009;28;20252;-50
2021/04/12 06:18:45;;;;;;;7.63;2.73;;;;;;;4.73;63.88;102070.28;6224926;28;20680;-51
2021/04/12 06:22:18;;;;;;;8.13;3.00;;;;;;;4.66;66.71;102073.47;6227165;28;20252;-55
2021/04/12 06:25:57;;;;;;;4.80;2.60;;;;;;;5.15;63.61;102079.44;6221176;28;20256;-55
2021/04/12 06:29:47;;;;;;;5.67;2.33;;;;;;;5.11;62.56;102073.28;6224146;28;20232;-53
2021/04/12 06:33:29;;;;;;;6.03;2.90;;;;;;;5.18;64.47;102071.81;6214959;28;20232;-55
2021/04/12 06:37:00;;;;;;;7.43;2.97;;;;;;;5.68;64.38;102085.44;6226686;28;20244;-55
2021/04/12 06:40:51;;;;;;;7.67;4.13;;;;;;;5.45;64.21;102085.63;6222706;28;20232;-53
2021/04/12 06:45:01;;;;;;;5.40;2.47;;;;;;;4.98;63.50;102096.94;6224429;28;20256;-51
2021/04/12 06:49:15;;;;;;;5.87;2.03;;;;;;;5.04;63.12;102102.31;6227990;28;20225;-52
2021/04/12 06:53:07;;;;;;;7.97;2.63;;;;;;;5.12;62.31;102103.47;6210555;28;20514;-53
2021/04/12 06:57:08;;;;;;;4.63;2.50;;;;;;;5.37;60.88;102102.59;6224904;28;20228;-55
2021/04/12 07:01:15;;;;;;;6.67;2.67;;;;;;;5.43;62.10;102107.03;6217569;28;20220;-57
2021/04/12 07:05:14;;;;;;;6.07;2.87;;;;;;;5.11;62.49;102114.59;6229331;28;20224;-56
2021/04/12 07:08:50;;;;;;;11.17;3.53;;;;;;;4.85;63.13;102109.44;6230301;28;20602;-57
2021/04/12 07:12:46;;;;;;;15.93;4.27;;;;;;;5.12;62.33;102121.53;6227694;28;20228;-57
2021/04/12 07:16:48;;;;;;;5.10;2.53;;;;;;;5.81;60.64;102122.91;6225725;28;20675;-55
2021/04/12 07:20:32;;;;;;;6.13;2.87;;;;;;;5.85;59.99;102124.75;6224215;28;20236;-53
2021/04/12 07:24:31;;;;;;;7.60;3.33;;;;;;;5.29;61.53;102123.00;6226241;28;20248;-54
2021/04/12 07:28:19;;;;;;;9.80;3.50;;;;;;;5.25;61.46;102127.97;6225256;28;20241;-54
2021/04/12 07:32:24;;;;;;;3.47;2.70;;;;;;;5.67;60.56;102138.84;6222587;28;20217;-55
2021/04/12 07:36:30;;;;;;;7.83;2.27;;;;;;;5.84;60.03;102142.00;6230393;28;20332;-56
2021/04/12 07:40:27;;;;;;;3.77;2.80;;;;;;;5.69;60.35;102144.94;6224869;28;20260;-55
2021/04/12 07:44:38;;;;;;;7.63;3.60;;;;;;;5.76;60.46;102150.31;6230567;28;20303;-54
2021/04/12 07:48:33;;;;;;;6.80;2.53;;;;;;;5.92;60.09;102148.28;6228961;28;20232;-52
2021/04/12 07:52:42;;;;;;;3.70;2.07;;;;;;;5.89;59.55;102152.47;6230409;28;20229;-57
2021/04/12 07:56:38;;;;;;;5.27;2.50;;;;;;;5.87;59.52;102147.28;6224723;28;20311;-56
2021/04/12 08:00:28;;;;;;;3.90;1.90;;;;;;;6.82;57.01;102154.38;6205640;28;20248;-55
2021/04/12 08:04:18;;;;;;;5.40;3.47;;;;;;;7.35;55.71;102159.25;6219709;28;20228;-56
2021/04/12 08:08:19;;;;;;;8.43;3.20;;;;;;;7.21;55.48;102168.38;6224573;28;20236;-55
2021/04/12 08:12:23;;;;;;;10.10;3.00;;;;;;;6.84;57.00;102181.22;6228464;28;20224;-55
2021/04/12 08:16:15;;;;;;;8.37;2.83;;;;;;;7.38;55.52;102184.38;6221797;28;20225;-57
2021/04/12 08:19:58;;;;;;;7.57;2.77;;;;;;;6.73;56.59;102187.81;6228278;28;20228;-58
2021/04/12 08:23:58;;;;;;;5.70;2.33;;;;;;;6.70;57.43;102198.06;6216090;28;20240;-57
2021/04/12 08:28:08;;;;;;;5.00;2.10;;;;;;;7.01;55.37;102194.63;6229260;28;20228;-52
2021/04/12 08:32:10;;;;;;;5.50;2.27;;;;;;;6.82;55.20;102203.56;6219141;28;20228;-57
2021/04/12 08:36:04;;;;;;;4.13;2.13;;;;;;;8.05;51.70;102199.00;6221145;28;20634;-55
2021/04/12 08:39:49;;;;;;;8.00;3.13;;;;;;;7.67;51.43;102198.94;6227445;28;20645;-57
2021/04/12 08:43:39;;;;;;;4.10;1.57;;;;;;;7.69;51.46;102205.03;6207170;28;20307;-57
2021/04/12 08:47:50;;;;;;;3.07;1.40;;;;;;;7.84;50.53;102220.13;6222586;28;20232;-56
2021/04/12 08:51:16;;;;;;;6.53;1.47;;;;;;;6.92;51.13;102221.97;6223793;28;20233;-55
2021/04/12 08:54:59;;;;;;;5.70;2.10;;;;;;;7.39;50.38;102212.06;6229146;28;20232;-57
2021/04/12 08:58:47;;;;;;;5.93;1.67;;;;;;;7.38;50.46;102223.25;6227799;28;20514;-57
2021/04/12 09:02:36;;;;;;;2.30;1.83;;;;;;;8.88;47.76;102220.75;6229573;28;20225;-55
2021/04/12 09:06:31;;;;;;;7.50;2.43;;;;;;;9.77;44.85;102211.09;6220792;28;20225;-57
2021/04/12 09:10:06;;;;;;;2.07;1.10;;;;;;;8.05;45.89;102217.16;6224808;28;20334;-53
2021/04/12 09:14:03;;;;;;;3.23;1.70;;;;;;;7.28;49.14;102225.59;6212764;28;20641;-53
2021/04/12 09:18:04;;;;;;;4.13;1.80;;;;;;;8.11;47.03;102232.00;6229702;28;20232;-52
2021/04/12 09:22:04;;;;;;;5.17;2.63;;;;;;;8.45;45.47;102227.59;6227038;28;20264;-54
2021/04/12 09:25:59;;;;;;;1.63;1.20;;;;;;;8.15;45.35;102233.81;6221582;28;20236;-54
2021/04/12 09:29:53;;;;;;;4.20;1.20;;;;;;;8.89;42.85;102237.22;6233475;28;20235;-53
2021/04/12 09:33:54;;;;;;;5.37;3.03;;;;;;;9.74;45.06;102229.25;6225724;28;20232;-50
2021/04/12 09:37:59;;;;;;;4.33;1.33;;;;;;;9.39;43.27;102239.91;6233373;28;20216;-53
2021/04/12 09:41:57;;;;;;;3.50;1.80;;;;;;;9.38;45.48;102253.75;6202995;28;20244;-56
2021/04/12 09:45:41;;;;;;;2.57;1.17;;;;;;;8.74;44.76;102251.59;6216203;28;20224;-56
2021/04/12 09:49:34;;;;;;;2.87;1.70;;;;;;;7.14;46.51;102260.63;6231601;28;20232;-55
2021/04/12 09:53:12;;;;;;;3.43;1.40;;;;;;;9.22;42.72;102253.47;6223824;28;20244;-56
2021/04/12 09:57:21;;;;;;;5.20;1.77;;;;;;;8.71;41.98;102254.16;6223421;28;20236;-55
2021/04/12 10:01:04;;;;;;;3.07;1.27;;;;;;;8.43;42.97;102253.56;6225726;28;20232;-52
2021/04/12 10:04:42;;;;;;;4.53;1.80;;;;;;;8.43;43.28;102274.31;6227504;28;20799;-55
2021/04/12 10:08:17;;;;;;;6.67;1.90;;;;;;;7.20;46.66;102262.50;6222774;28;20256;-57
2021/04/12 10:11:46;;;;;;;4.67;2.13;;;;;;;8.58;44.44;102265.13;6220862;28;20229;-52
2021/04/12 10:15:33;;;;;;;3.90;1.60;;;;;;;9.78;41.81;102259.69;6213127;28;20552;-55
2021/04/12 10:19:13;;;;;;;2.60;1.17;;;;;;;9.14;41.54;102255.03;6228128;28;20243;-56
2021/04/12 10:22:46;;;;;;;3.07;1.57;;;;;;;8.64;42.60;102254.84;6228641;28;20229;-54
2021/04/12 10:26:13;;;;;;;5.10;1.53;;;;;;;8.22;43.13;102258.19;6224872;28;20236;-57
2021/04/12 10:29:40;;;;;;;3.50;2.13;;;;;;;8.39;42.70;102256.88;6223474;28;20232;-57
2021/04/12 10:33:04;;;;;;;2.80;1.47;;;;;;;8.03;42.91;102260.34;6216642;28;20244;-53
2021/04/12 10:36:28;;;;;;;4.03;1.23;;;;;;;8.70;42.04;102259.31;6225997;28;20224;-54
2021/04/12 10:40:02;;;;;;;3.03;1.97;;;;;;;8.73;40.66;102262.00;6226895;28;20232;-56
2021/04/12 10:43:29;;;;;;;3.03;1.00;;;;;;;8.95;39.18;102252.91;6229091;28;20228;-57
2021/04/12 10:46:58;;;;;;;2.60;1.30;;;;;;;9.73;38.72;102256.13;6223798;28;20220;-54
2021/04/12 10:50:28;;;;;;;4.23;1.40;;;;;;;10.62;37.59;102241.91;6227550;28;20236;-52
2021/04/12 10:54:21;;;;;;;3.27;1.23;;;;;;;10.14;38.21;102242.91;6225349;28;20315;-53
2021/04/12 10:58:20;;;;;;;2.27;1.07;;;;;;;10.59;36.21;102247.09;6225953;28;20721;-56
2021/04/12 11:01:45;;;;;;;2.37;1.27;;;;;;;9.95;37.75;102246.97;6217700;28;20224;-55
2021/04/12 11:05:09;;;;;;;1.30;1.00;;;;;;;11.25;36.16;102265.28;6211219;28;20812;-52
2021/04/12 11:08:42;;;;;;;2.63;1.13;;;;;;;12.21;36.71;102270.53;6209259;28;22210;-52
2021/04/12 11:12:12;;;;;;;2.73;1.17;;;;;;;10.76;42.42;102287.28;6218110;28;20236;-53
2021/04/12 11:15:58;;;;;;;2.77;1.27;;;;;;;9.96;44.77;102296.41;6224987;28;20235;-52
2021/04/12 11:19:24;;;;;;;3.20;1.07;;;;;;;10.07;46.29;102298.34;6202417;28;20226;-52
2021/04/12 11:22:57;;;;;;;1.33;0.87;;;;;;;9.75;49.78;102314.25;6204866;28;20213;-55
2021/04/12 11:26:25;;;;;;;1.00;1.00;;;;;;;8.57;51.49;102307.50;6209844;28;20751;-54
2021/04/12 11:29:58;;;;;;;1.07;0.87;;;;;;;7.76;53.70;102314.13;6210851;28;20228;-56
2021/04/12 11:33:49;;;;;;;4.40;1.40;;;;;;;7.33;53.47;102315.53;6209520;28;20232;-52
2021/04/12 11:37:23;;;;;;;3.03;0.90;;;;;;;7.55;49.88;102317.03;6207979;28;20320;-55
2021/04/12 11:40:51;;;;;;;1.83;1.50;;;;;;;7.98;50.51;102318.16;6189632;28;20232;-57
2021/04/12 11:44:18;;;;;;;2.27;1.10;;;;;;;7.74;50.25;102321.88;6201177;28;20755;-57
2021/04/12 11:48:00;;;;;;;1.97;0.97;;;;;;;7.80;49.77;102327.22;6212072;28;20241;-56
2021/04/12 11:51:35;;;;;;;1.50;1.13;;;;;;;8.74;48.58;102313.94;6212251;28;20241;-60
2021/04/12 11:55:06;;;;;;;5.07;1.80;;;;;;;11.67;43.73;102306.59;6204829;28;20240;-57
2021/04/12 11:58:32;;;;;;;0.97;0.90;;;;;;;13.21;40.16;102297.22;6207823;28;20228;-55
2021/04/12 12:02:01;;;;;;;2.73;1.40;;;;;;;15.20;35.71;102300.69;6209084;28;20240;-51
2021/04/12 12:05:30;;;;;;;1.70;0.97;;;;;;;18.50;27.75;102287.25;6209680;28;20694;-55
2021/04/12 12:08:58;;;;;;;1.10;0.80;;;;;;;16.22;30.04;102293.00;6225828;28;20235;-56
2021/04/12 12:12:33;;;;;;;3.47;1.20;;;;;;;9.15;44.43;102314.00;6213446;28;20252;-58
2021/04/12 12:16:06;;;;;;;1.70;1.17;;;;;;;9.00;47.63;102313.66;6213114;28;20241;-49
2021/04/12 12:19:36;;;;;;;2.73;1.40;;;;;;;7.53;51.62;102331.66;6218990;28;20232;-53
2021/04/12 12:23:03;;;;;;;4.13;1.63;;;;;;;8.17;51.88;102322.09;6228619;28;20228;-50
2021/04/12 12:26:32;;;;;;;2.73;2.10;;;;;;;11.98;44.57;102302.56;6224167;28;20233;-55
2021/04/12 12:29:59;;;;;;;1.10;1.00;;;;;;;9.91;45.97;102302.41;6221733;28;20327;-56
2021/04/12 12:33:30;;;;;;;3.17;1.43;;;;;;;9.02;46.48;102296.38;6221687;28;20232;-56
2021/04/12 12:36:57;;;;;;;3.20;2.00;;;;;;;12.91;40.47;102292.72;6228944;28;20228;-53
2021/04/12 12:40:20;;;;;;;27.97;25.33;;;;;;;20.95;28.63;102279.69;6233312;28;20236;-54
2021/04/12 12:43:42;;;;;;;2.30;2.10;;;;;;;23.14;23.81;102281.16;6231113;28;20232;-56
2021/04/12 12:47:10;;;;;;;9.93;8.93;;;;;;;22.45;24.66;102278.41;6224911;28;20229;-58
2021/04/12 12:50:42;;;;;;;6.63;6.03;;;;;;;18.02;28.43;102268.78;6227358;28;20610;-54
2021/04/12 12:54:08;;;;;;;3.37;1.00;;;;;;;11.77;36.79;102284.94;6226613;28;20311;-48
2021/04/12 12:57:33;;;;;;;4.93;2.50;;;;;;;11.85;38.27;102279.81;6221715;28;20490;-56
2021/04/12 13:00:56;;;;;;;1.37;1.00;;;;;;;10.89;39.44;102282.22;6231158;28;20252;-54
2021/04/12 13:04:20;;;;;;;2.00;1.13;;;;;;;10.44;40.30;102289.41;6228855;28;20240;-58
2021/04/12 13:07:42;;;;;;;3.23;1.63;;;;;;;10.78;40.33;102285.56;6231312;28;20228;-56
2021/04/12 13:11:03;;;;;;;1.50;1.13;;;;;;;11.37;39.77;102291.50;6227664;28;20228;-56
2021/04/12 13:14:32;;;;;;;2.80;1.33;;;;;;;12.28;36.10;102287.16;6224952;28;20626;-53
2021/04/12 13:18:03;;;;;;;3.43;1.77;;;;;;;13.90;33.98;102300.03;6225839;28;20235;-58
2021/04/12 13:21:27;;;;;;;1.23;1.00;;;;;;;13.69;29.06;102311.34;6230701;28;20236;-56
2021/04/12 13:24:48;;;;;;;1.57;1.27;;;;;;;11.59;30.22;102288.25;6230227;28;20236;-52
2021/04/12 13:28:16;;;;;;;1.33;1.10;;;;;;;12.64;28.89;102286.50;6228971;28;20244;-54
2021/04/12 13:31:44;;;;;;;4.63;1.37;;;;;;;13.26;28.86;102289.38;6218372;28;20228;-56
2021/04/12 13:35:08;;;;;;;1.70;1.20;;;;;;;12.51;31.13;102287.31;6224707;28;20232;-54
2021/04/12 13:38:33;;;;;;;1.20;1.10;;;;;;;13.11;31.07;102280.63;6232116;28;20232;-56
2021/04/12 13:41:54;;;;;;;3.27;1.20;;;;;;;14.89;27.41;102268.47;6231208;28;20672;-55
2021/04/12 13:45:15;;;;;;;2.43;1.00;;;;;;;14.20;28.71;102258.97;6227297;28;20228;-55
2021/04/12 13:48:38;;;;;;;1.33;0.87;;;;;;;14.31;26.81;102261.59;6228953;28;20224;-54
2021/04/12 13:52:05;;;;;;;3.30;1.30;;;;;;;17.34;22.44;102248.75;6232420;28;20224;-56
2021/04/12 13:55:29;;;;;;;2.33;1.00;;;;;;;17.31;23.15;102244.41;6230708;28;20236;-56
2021/04/12 13:59:00;;;;;;;0.90;0.80;;;;;;;11.84;28.08;102251.94;6227924;28;20237;-57
2021/04/12 14:02:28;;;;;;;3.20;1.33;;;;;;;11.33;28.81;102259.28;6219702;28;20236;-55
2021/04/12 14:05:56;;;;;;;1.37;1.03;;;;;;;11.03;30.35;102270.22;6225762;28;20628;-55
2021/04/12 14:09:24;;;;;;;1.67;1.53;;;;;;;11.02;29.90;102261.53;6216741;28;20244;-50
2021/04/12 14:12:57;;;;;;;2.63;0.93;;;;;;;11.25;29.98;102276.59;6221958;28;20890;-55
2021/04/12 14:16:21;;;;;;;1.73;1.10;;;;;;;11.26;30.83;102278.31;6217192;28;20236;-56
2021/04/12 14:19:46;;;;;;;2.43;1.40;;;;;;;11.98;29.93;102281.69;6221530;28;20244;-54
2021/04/12 14:23:19;;;;;;;1.83;1.07;;;;;;;13.31;27.56;102277.22;6196622;28;20224;-50
2021/04/12 14:26:44;;;;;;;3.10;1.37;;;;;;;11.48;30.07;102283.78;6220615;28;20224;-53
2021/04/12 14:30:12;;;;;;;2.57;1.30;;;;;;;13.85;27.67;102270.34;6217913;28;20232;-53
2021/04/12 14:33:36;;;;;;;3.87;1.07;;;;;;;13.85;28.32;102274.72;6235654;28;20239;-53
2021/04/12 14:37:03;;;;;;;3.00;1.50;;;;;;;13.14;30.83;102279.75;6214385;28;20638;-52
2021/04/12 14:40:30;;;;;;;4.83;2.03;;;;;;;12.47;33.49;102282.94;6230513;28;20233;-52
2021/04/12 14:43:59;;;;;;;2.80;1.47;;;;;;;11.53;34.83;102280.34;6238707;28;20650;-50
2021/04/12 14:47:24;;;;;;;1.53;1.20;;;;;;;11.22;35.78;102282.66;6223483;28;20249;-50
2021/04/12 14:50:48;;;;;;;2.10;1.27;;;;;;;10.62;36.29;102288.78;6230876;28;20264;-50
2021/04/12 14:54:15;;;;;;;4.93;2.10;;;;;;;10.27;36.17;102291.72;6234816;28;20255;-53
2021/04/12 14:57:39;;;;;;;3.27;1.50;;;;;;;10.02;34.96;102301.75;6228394;28;20224;-56
2021/04/12 15:01:04;;;;;;;2.87;1.03;;;;;;;10.59;34.71;102305.25;6229210;28;20236;-55
2021/04/12 15:04:27;;;;;;;2.77;1.33;;;;;;;10.07;35.35;102314.81;6233044;28;20244;-50
2021/04/12 15:07:52;;;;;;;4.83;1.67;;;;;;;9.96;35.55;102305.94;6230859;28;20233;-50
2021/04/12 15:11:16;;;;;;;1.47;1.37;;;;;;;8.73;38.75;102313.94;6229315;28;20228;-51
2021/04/12 15:14:40;;;;;;;1.33;1.23;;;;;;;8.97;40.20;102334.38;6218681;28;20232;-55
2021/04/12 15:18:15;;;;;;;3.53;1.60;;;;;;;8.73;42.31;102345.09;6229385;28;20693;-55
2021/04/12 15:21:42;;;;;;;2.10;1.07;;;;;;;8.74;42.73;102337.31;6220762;28;20242;-52
2021/04/12 15:25:07;;;;;;;4.20;1.50;;;;;;;10.58;40.58;102331.28;6216907;28;20221;-54
2021/04/12 15:28:30;;;;;;;2.60;1.20;;;;;;;10.23;39.75;102339.38;6213084;28;20229;-55
2021/04/12 15:31:55;;;;;;;3.13;1.50;;;;;;;10.70;37.09;102328.88;6225856;28;20314;-54
2021/04/12 15:35:32;;;;;;;2.17;1.13;;;;;;;10.71;41.33;102329.75;6213405;28;20248;-55
2021/04/12 15:38:54;;;;;;;1.87;1.27;;;;;;;10.57;43.33;102337.38;6228249;28;20275;-56
2021/04/12 15:42:18;;;;;;;3.03;1.77;;;;;;;11.18;41.61;102325.16;6217860;28;20251;-54
2021/04/12 15:45:43;;;;;;;1.50;1.40;;;;;;;9.25;39.27;102356.66;6215215;28;20279;-51
2021/04/12 15:49:07;;;;;;;3.17;1.13;;;;;;;8.85;40.73;102350.56;6226198;28;20264;-52
2021/04/12 15:52:33;;;;;;;1.63;1.00;;;;;;;9.36;40.90;102352.53;6224524;28;20228;-55
2021/04/12 15:55:57;;;;;;;2.87;1.40;;;;;;;10.08;40.19;102357.34;6233627;28;20306;-55
2021/04/12 15:59:25;;;;;;;1.40;1.23;;;;;;;10.57;38.86;102343.44;6230049;28;20232;-51
2021/04/12 16:02:51;;;;;;;2.40;1.30;;;;;;;9.64;41.51;102358.28;6219505;28;20318;-52
2021/04/12 16:06:14;;;;;;;2.30;1.43;;;;;;;9.72;40.50;102345.44;6228943;28;21885;-51
2021/04/12 16:09:38;;;;;;;1.13;1.03;;;;;;;8.83;41.90;102354.84;6228785;28;20224;-53
2021/04/12 16:13:06;;;;;;;3.10;1.40;;;;;;;8.67;42.22;102353.63;6227937;28;20732;-54
2021/04/12 16:16:29;;;;;;;1.00;0.90;;;;;;;9.11;41.70;102355.47;6208286;28;20233;-53
2021/04/12 16:20:04;;;;;;;1.43;1.17;;;;;;;10.04;39.17;102356.41;6232152;28;20240;-53
2021/04/12 16:23:32;;;;;;;2.10;1.03;;;;;;;9.54;39.96;102354.63;6212781;28;20277;-51
2021/04/12 16:26:56;;;;;;;1.00;0.90;;;;;;;9.99;38.88;102364.16;6219500;28;20255;-53
2021/04/12 16:30:25;;;;;;;2.40;1.07;;;;;;;10.31;36.43;102361.25;6225225;28;20259;-51
2021/04/12 16:33:47;;;;;;;1.50;1.27;;;;;;;9.33;38.14;102367.19;6226416;28;20232;-54
2021/04/12 16:37:17;;;;;;;1.70;0.90;;;;;;;8.67;37.11;102372.69;6226047;28;20548;-54
2021/04/12 16:40:41;;;;;;;1.00;0.90;;;;;;;9.19;36.62;102367.78;6215553;28;20237;-54
2021/04/12 16:44:06;;;;;;;2.73;1.17;;;;;;;9.99;39.86;102386.69;6229775;28;20244;-53
2021/04/12 16:47:28;;;;;;;1.30;0.70;;;;;;;10.02;42.25;102395.44;6223929;28;20228;-51
2021/04/12 16:50:53;;;;;;;1.47;1.23;;;;;;;10.25;42.52;102397.56;6229403;28;20243;-53
2021/04/12 16:54:17;;;;;;;1.57;0.93;;;;;;;10.08;43.28;102404.19;6236056;28;20514;-48
2021/04/12 16:57:42;;;;;;;2.60;1.17;;;;;;;10.50;42.42;102398.03;6226967;28;20237;-54
2021/04/12 17:01:10;;;;;;;5.43;1.30;;;;;;;10.80;41.79;102392.44;6232373;28;20236;-53
2021/04/12 17:04:39;;;;;;;9.30;7.10;;;;;;;10.69;41.06;102394.88;6228549;28;20228;-51